sensor_id;sensor_type;location;lat;lon;timestamp;P1;durP1;ratioP1;P2;durP2;ratioP2
61673;SDS011;47573;43.832;5.974;2022-11-25T00:03:08;567.05;;;414.05;;
61673;SDS011;47573;43.832;5.974;2022-11-25T00:08:09;568.40;;;416.65;;
61673;SDS011;47573;43.832;5.974;2022-11-25T00:13:11;579.95;;;425.73;;
61673;SDS011;47573;43.832;5.974;2022-11-25T00:18:11;578.20;;;427.48;;
61673;SDS011;47573;43.832;5.974;2022-11-25T00:23:12;593.08;;;447.00;;
61673;SDS011;47573;43.832;5.974;2022-11-25T00:28:13;601.65;;;449.70;;
61673;SDS011;47573;43.832;5.974;2022-11-25T00:33:14;596.75;;;455.13;;
61673;SDS011;47573;43.832;5.974;2022-11-25T00:38:15;612.15;;;461.55;;
61673;SDS011;47573;43.832;5.974;2022-11-25T00:43:16;608.97;;;464.75;;
61673;SDS011;47573;43.832;5.974;2022-11-25T00:48:17;611.45;;;467.42;;
61673;SDS011;47573;43.832;5.974;2022-11-25T00:53:17;611.47;;;469.48;;
61673;SDS011;47573;43.832;5.974;2022-11-25T00:58:19;606.85;;;463.23;;
61673;SDS011;47573;43.832;5.974;2022-11-25T01:03:20;610.03;;;468.83;;
61673;SDS011;47573;43.832;5.974;2022-11-25T01:08:20;615.35;;;476.83;;
61673;SDS011;47573;43.832;5.974;2022-11-25T01:13:22;625.45;;;483.25;;
61673;SDS011;47573;43.832;5.974;2022-11-25T01:18:22;616.63;;;475.67;;
61673;SDS011;47573;43.832;5.974;2022-11-25T01:23:23;613.53;;;473.45;;
61673;SDS011;47573;43.832;5.974;2022-11-25T01:28:25;608.28;;;464.83;;
61673;SDS011;47573;43.832;5.974;2022-11-25T01:33:25;598.03;;;449.60;;
61673;SDS011;47573;43.832;5.974;2022-11-25T01:38:26;612.65;;;462.52;;
61673;SDS011;47573;43.832;5.974;2022-11-25T01:43:27;609.17;;;460.20;;
61673;SDS011;47573;43.832;5.974;2022-11-25T01:48:31;611.78;;;467.38;;
61673;SDS011;47573;43.832;5.974;2022-11-25T01:53:38;615.30;;;467.20;;
61673;SDS011;47573;43.832;5.974;2022-11-25T01:58:40;620.13;;;472.85;;
61673;SDS011;47573;43.832;5.974;2022-11-25T02:03:43;609.47;;;463.40;;
61673;SDS011;47573;43.832;5.974;2022-11-25T02:08:47;609.47;;;460.30;;
61673;SDS011;47573;43.832;5.974;2022-11-25T02:13:52;623.03;;;478.92;;
61673;SDS011;47573;43.832;5.974;2022-11-25T02:18:53;626.13;;;477.17;;
61673;SDS011;47573;43.832;5.974;2022-11-25T02:23:54;626.20;;;470.90;;
61673;SDS011;47573;43.832;5.974;2022-11-25T02:29:02;633.90;;;480.38;;
61673;SDS011;47573;43.832;5.974;2022-11-25T02:34:02;626.58;;;477.60;;
61673;SDS011;47573;43.832;5.974;2022-11-25T02:39:03;629.58;;;480.98;;
61673;SDS011;47573;43.832;5.974;2022-11-25T02:44:05;618.60;;;462.55;;
61673;SDS011;47573;43.832;5.974;2022-11-25T02:49:06;617.58;;;460.23;;
61673;SDS011;47573;43.832;5.974;2022-11-25T02:54:07;617.80;;;463.17;;
61673;SDS011;47573;43.832;5.974;2022-11-25T02:59:09;634.35;;;478.83;;
61673;SDS011;47573;43.832;5.974;2022-11-25T03:04:10;650.60;;;488.30;;
61673;SDS011;47573;43.832;5.974;2022-11-25T03:09:11;650.08;;;493.45;;
61673;SDS011;47573;43.832;5.974;2022-11-25T03:14:12;642.28;;;483.90;;
61673;SDS011;47573;43.832;5.974;2022-11-25T03:19:13;637.67;;;481.33;;
61673;SDS011;47573;43.832;5.974;2022-11-25T03:24:13;628.80;;;473.60;;
61673;SDS011;47573;43.832;5.974;2022-11-25T03:29:15;637.22;;;478.52;;
61673;SDS011;47573;43.832;5.974;2022-11-25T03:34:16;658.15;;;499.13;;
61673;SDS011;47573;43.832;5.974;2022-11-25T03:39:16;654.83;;;498.75;;
61673;SDS011;47573;43.832;5.974;2022-11-25T03:44:18;660.28;;;501.40;;
61673;SDS011;47573;43.832;5.974;2022-11-25T03:49:18;656.15;;;494.92;;
61673;SDS011;47573;43.832;5.974;2022-11-25T03:54:19;667.55;;;508.48;;
61673;SDS011;47573;43.832;5.974;2022-11-25T03:59:21;676.10;;;520.17;;
61673;SDS011;47573;43.832;5.974;2022-11-25T04:04:22;678.67;;;515.58;;
61673;SDS011;47573;43.832;5.974;2022-11-25T04:09:22;665.00;;;509.10;;
61673;SDS011;47573;43.832;5.974;2022-11-25T04:14:24;657.22;;;497.52;;
61673;SDS011;47573;43.832;5.974;2022-11-25T04:19:25;647.80;;;490.60;;
61673;SDS011;47573;43.832;5.974;2022-11-25T04:24:25;632.47;;;479.70;;
61673;SDS011;47573;43.832;5.974;2022-11-25T04:29:27;631.45;;;470.70;;
61673;SDS011;47573;43.832;5.974;2022-11-25T04:34:28;620.92;;;460.02;;
61673;SDS011;47573;43.832;5.974;2022-11-25T04:39:28;625.75;;;462.13;;
61673;SDS011;47573;43.832;5.974;2022-11-25T04:44:30;627.00;;;466.85;;
61673;SDS011;47573;43.832;5.974;2022-11-25T04:49:30;609.63;;;450.27;;
61673;SDS011;47573;43.832;5.974;2022-11-25T04:54:31;598.40;;;439.85;;
61673;SDS011;47573;43.832;5.974;2022-11-25T04:59:33;597.00;;;434.95;;
61673;SDS011;47573;43.832;5.974;2022-11-25T05:04:33;593.95;;;430.73;;
61673;SDS011;47573;43.832;5.974;2022-11-25T05:09:34;587.92;;;425.02;;
61673;SDS011;47573;43.832;5.974;2022-11-25T05:14:36;582.53;;;417.10;;
61673;SDS011;47573;43.832;5.974;2022-11-25T05:19:36;577.30;;;408.58;;
61673;SDS011;47573;43.832;5.974;2022-11-25T05:24:37;577.22;;;412.90;;
61673;SDS011;47573;43.832;5.974;2022-11-25T05:29:39;563.08;;;396.25;;
61673;SDS011;47573;43.832;5.974;2022-11-25T05:34:40;551.17;;;386.73;;
61673;SDS011;47573;43.832;5.974;2022-11-25T05:39:41;553.13;;;385.65;;
61673;SDS011;47573;43.832;5.974;2022-11-25T05:44:43;557.22;;;384.17;;
61673;SDS011;47573;43.832;5.974;2022-11-25T05:49:43;536.35;;;369.77;;
61673;SDS011;47573;43.832;5.974;2022-11-25T05:54:44;532.95;;;364.10;;
61673;SDS011;47573;43.832;5.974;2022-11-25T05:59:45;530.15;;;361.40;;
61673;SDS011;47573;43.832;5.974;2022-11-25T06:04:46;527.08;;;360.20;;
61673;SDS011;47573;43.832;5.974;2022-11-25T06:09:46;521.28;;;355.83;;
61673;SDS011;47573;43.832;5.974;2022-11-25T06:14:48;519.20;;;352.00;;
61673;SDS011;47573;43.832;5.974;2022-11-25T06:19:49;510.63;;;347.48;;
61673;SDS011;47573;43.832;5.974;2022-11-25T06:24:50;520.63;;;348.15;;
61673;SDS011;47573;43.832;5.974;2022-11-25T06:29:52;501.13;;;333.85;;
61673;SDS011;47573;43.832;5.974;2022-11-25T06:34:52;967.42;;;519.65;;
61673;SDS011;47573;43.832;5.974;2022-11-25T06:39:53;1184.20;;;595.83;;
61673;SDS011;47573;43.832;5.974;2022-11-25T06:44:54;893.95;;;491.13;;
61673;SDS011;47573;43.832;5.974;2022-11-25T06:49:55;522.65;;;338.30;;
61673;SDS011;47573;43.832;5.974;2022-11-25T06:54:56;956.50;;;558.50;;
61673;SDS011;47573;43.832;5.974;2022-11-25T06:59:58;593.47;;;368.95;;
61673;SDS011;47573;43.832;5.974;2022-11-25T07:04:58;577.55;;;352.85;;
61673;SDS011;47573;43.832;5.974;2022-11-25T07:09:59;749.05;;;426.67;;
61673;SDS011;47573;43.832;5.974;2022-11-25T07:15:00;688.45;;;396.85;;
61673;SDS011;47573;43.832;5.974;2022-11-25T07:20:01;522.42;;;327.88;;
61673;SDS011;47573;43.832;5.974;2022-11-25T07:25:01;513.13;;;317.85;;
61673;SDS011;47573;43.832;5.974;2022-11-25T07:30:04;482.65;;;305.80;;
61673;SDS011;47573;43.832;5.974;2022-11-25T07:35:06;1053.38;;;566.13;;
61673;SDS011;47573;43.832;5.974;2022-11-25T07:40:07;626.40;;;369.08;;
61673;SDS011;47573;43.832;5.974;2022-11-25T07:45:09;478.02;;;289.33;;
61673;SDS011;47573;43.832;5.974;2022-11-25T07:50:10;442.20;;;271.17;;
61673;SDS011;47573;43.832;5.974;2022-11-25T07:55:11;421.02;;;266.20;;
61673;SDS011;47573;43.832;5.974;2022-11-25T08:00:13;969.65;;;519.85;;
61673;SDS011;47573;43.832;5.974;2022-11-25T08:05:14;734.53;;;388.42;;
61673;SDS011;47573;43.832;5.974;2022-11-25T08:10:15;430.73;;;263.90;;
61673;SDS011;47573;43.832;5.974;2022-11-25T08:15:17;664.25;;;361.48;;
61673;SDS011;47573;43.832;5.974;2022-11-25T08:20:18;723.67;;;365.50;;
61673;SDS011;47573;43.832;5.974;2022-11-25T08:25:18;379.30;;;234.80;;
61673;SDS011;47573;43.832;5.974;2022-11-25T08:30:20;349.63;;;223.35;;
61673;SDS011;47573;43.832;5.974;2022-11-25T08:35:21;341.17;;;216.25;;
61673;SDS011;47573;43.832;5.974;2022-11-25T08:40:21;341.08;;;213.55;;
61673;SDS011;47573;43.832;5.974;2022-11-25T08:45:23;326.98;;;205.50;;
61673;SDS011;47573;43.832;5.974;2022-11-25T08:50:24;380.48;;;222.48;;
61673;SDS011;47573;43.832;5.974;2022-11-25T08:55:24;937.33;;;522.72;;
61673;SDS011;47573;43.832;5.974;2022-11-25T09:00:26;470.63;;;255.63;;
61673;SDS011;47573;43.832;5.974;2022-11-25T09:05:27;351.13;;;208.93;;
61673;SDS011;47573;43.832;5.974;2022-11-25T09:10:28;336.02;;;203.02;;
61673;SDS011;47573;43.832;5.974;2022-11-25T09:15:31;320.10;;;197.80;;
61673;SDS011;47573;43.832;5.974;2022-11-25T09:20:32;676.35;;;341.30;;
61673;SDS011;47573;43.832;5.974;2022-11-25T09:25:33;426.25;;;236.32;;
61673;SDS011;47573;43.832;5.974;2022-11-25T09:30:36;579.67;;;303.15;;
61673;SDS011;47573;43.832;5.974;2022-11-25T09:35:36;283.50;;;172.10;;
61673;SDS011;47573;43.832;5.974;2022-11-25T09:40:39;285.67;;;162.45;;
61673;SDS011;47573;43.832;5.974;2022-11-25T09:45:48;202.48;;;119.82;;
61673;SDS011;47573;43.832;5.974;2022-11-25T09:50:59;618.22;;;319.58;;
61673;SDS011;47573;43.832;5.974;2022-11-25T09:56:08;174.90;;;104.63;;
61673;SDS011;47573;43.832;5.974;2022-11-25T10:01:21;174.07;;;104.40;;
61673;SDS011;47573;43.832;5.974;2022-11-25T10:06:25;196.45;;;120.47;;
61673;SDS011;47573;43.832;5.974;2022-11-25T10:11:34;192.65;;;116.43;;
61673;SDS011;47573;43.832;5.974;2022-11-25T10:16:48;184.73;;;112.15;;
61673;SDS011;47573;43.832;5.974;2022-11-25T10:21:50;180.38;;;110.65;;
61673;SDS011;47573;43.832;5.974;2022-11-25T10:26:52;180.63;;;110.13;;
61673;SDS011;47573;43.832;5.974;2022-11-25T10:32:18;177.88;;;110.55;;
61673;SDS011;47573;43.832;5.974;2022-11-25T10:37:24;173.48;;;106.93;;
61673;SDS011;47573;43.832;5.974;2022-11-25T10:42:27;168.60;;;104.93;;
61673;SDS011;47573;43.832;5.974;2022-11-25T10:47:34;170.55;;;105.10;;
61673;SDS011;47573;43.832;5.974;2022-11-25T10:52:38;166.88;;;102.75;;
61673;SDS011;47573;43.832;5.974;2022-11-25T10:57:43;167.45;;;102.30;;
61673;SDS011;47573;43.832;5.974;2022-11-25T11:02:45;164.82;;;102.38;;
61673;SDS011;47573;43.832;5.974;2022-11-25T11:07:46;163.27;;;100.57;;
61673;SDS011;47573;43.832;5.974;2022-11-25T11:12:53;163.90;;;100.25;;
61673;SDS011;47573;43.832;5.974;2022-11-25T11:17:57;162.90;;;100.20;;
61673;SDS011;47573;43.832;5.974;2022-11-25T11:23:00;159.25;;;98.38;;
61673;SDS011;47573;43.832;5.974;2022-11-25T11:28:22;161.35;;;97.03;;
61673;SDS011;47573;43.832;5.974;2022-11-25T11:33:28;158.82;;;96.38;;
61673;SDS011;47573;43.832;5.974;2022-11-25T11:38:34;151.88;;;95.10;;
61673;SDS011;47573;43.832;5.974;2022-11-25T11:43:39;149.43;;;92.97;;
61673;SDS011;47573;43.832;5.974;2022-11-25T11:49:01;154.82;;;94.43;;
61673;SDS011;47573;43.832;5.974;2022-11-25T11:54:15;150.23;;;92.10;;
61673;SDS011;47573;43.832;5.974;2022-11-25T11:59:29;153.50;;;93.78;;
61673;SDS011;47573;43.832;5.974;2022-11-25T12:04:49;148.38;;;91.45;;
61673;SDS011;47573;43.832;5.974;2022-11-25T12:09:56;143.85;;;88.45;;
61673;SDS011;47573;43.832;5.974;2022-11-25T12:15:03;146.35;;;89.72;;
61673;SDS011;47573;43.832;5.974;2022-11-25T12:20:14;147.88;;;90.00;;
61673;SDS011;47573;43.832;5.974;2022-11-25T12:25:21;142.30;;;86.82;;
61673;SDS011;47573;43.832;5.974;2022-11-25T12:30:23;145.40;;;87.55;;
61673;SDS011;47573;43.832;5.974;2022-11-25T12:35:37;146.25;;;86.10;;
61673;SDS011;47573;43.832;5.974;2022-11-25T12:40:46;136.60;;;84.22;;
61673;SDS011;47573;43.832;5.974;2022-11-25T12:45:56;137.00;;;82.88;;
61673;SDS011;47573;43.832;5.974;2022-11-25T12:51:07;141.50;;;82.75;;
61673;SDS011;47573;43.832;5.974;2022-11-25T12:56:16;141.18;;;81.30;;
61673;SDS011;47573;43.832;5.974;2022-11-25T13:06:35;40.72;;;24.75;;
61673;SDS011;47573;43.832;5.974;2022-11-25T13:11:54;111.30;;;38.03;;
61673;SDS011;47573;43.832;5.974;2022-11-25T13:17:07;40.90;;;25.83;;
61673;SDS011;47573;43.832;5.974;2022-11-25T13:22:24;55.85;;;26.45;;
61673;SDS011;47573;43.832;5.974;2022-11-25T13:32:33;23.60;;;14.50;;
61673;SDS011;47573;43.832;5.974;2022-11-25T13:37:39;70.95;;;27.48;;
61673;SDS011;47573;43.832;5.974;2022-11-25T13:42:42;21.23;;;13.05;;
61673;SDS011;47573;43.832;5.974;2022-11-25T13:47:44;31.33;;;15.43;;
61673;SDS011;47573;43.832;5.974;2022-11-25T13:52:49;24.33;;;14.07;;
61673;SDS011;47573;43.832;5.974;2022-11-25T13:58:05;33.13;;;19.55;;
61673;SDS011;47573;43.832;5.974;2022-11-25T14:08:49;36.65;;;20.30;;
61673;SDS011;47573;43.832;5.974;2022-11-25T14:14:01;32.97;;;19.10;;
61673;SDS011;47573;43.832;5.974;2022-11-25T14:19:36;32.47;;;18.67;;
61673;SDS011;47573;43.832;5.974;2022-11-25T14:24:53;32.50;;;18.98;;
61673;SDS011;47573;43.832;5.974;2022-11-25T14:29:59;43.75;;;21.73;;
61673;SDS011;47573;43.832;5.974;2022-11-25T14:35:04;36.83;;;19.67;;
61673;SDS011;47573;43.832;5.974;2022-11-25T14:40:13;34.00;;;18.85;;
61673;SDS011;47573;43.832;5.974;2022-11-25T14:45:22;31.52;;;18.35;;
61673;SDS011;47573;43.832;5.974;2022-11-25T14:50:24;32.83;;;18.55;;
61673;SDS011;47573;43.832;5.974;2022-11-25T14:55:27;28.00;;;17.83;;
61673;SDS011;47573;43.832;5.974;2022-11-25T15:00:30;27.50;;;16.60;;
61673;SDS011;47573;43.832;5.974;2022-11-25T15:05:31;39.97;;;20.10;;
61673;SDS011;47573;43.832;5.974;2022-11-25T15:10:39;30.00;;;18.25;;
61673;SDS011;47573;43.832;5.974;2022-11-25T15:15:43;28.13;;;17.65;;
61673;SDS011;47573;43.832;5.974;2022-11-25T15:20:46;286.50;;;84.53;;
61673;SDS011;47573;43.832;5.974;2022-11-25T15:25:49;30.52;;;18.90;;
61673;SDS011;47573;43.832;5.974;2022-11-25T15:30:54;31.60;;;20.00;;
61673;SDS011;47573;43.832;5.974;2022-11-25T15:35:56;30.90;;;20.17;;
61673;SDS011;47573;43.832;5.974;2022-11-25T15:40:58;30.08;;;19.60;;
61673;SDS011;47573;43.832;5.974;2022-11-25T15:45:59;29.50;;;19.63;;
61673;SDS011;47573;43.832;5.974;2022-11-25T15:51:02;29.92;;;19.40;;
61673;SDS011;47573;43.832;5.974;2022-11-25T15:56:08;28.33;;;19.50;;
61673;SDS011;47573;43.832;5.974;2022-11-25T16:01:18;731.50;;;328.23;;
61673;SDS011;47573;43.832;5.974;2022-11-25T16:06:21;39.58;;;22.25;;
61673;SDS011;47573;43.832;5.974;2022-11-25T16:11:25;29.40;;;20.48;;
61673;SDS011;47573;43.832;5.974;2022-11-25T16:16:27;29.50;;;20.30;;
61673;SDS011;47573;43.832;5.974;2022-11-25T16:21:29;29.90;;;20.50;;
61673;SDS011;47573;43.832;5.974;2022-11-25T16:26:48;29.77;;;20.20;;
61673;SDS011;47573;43.832;5.974;2022-11-25T16:31:50;28.33;;;19.63;;
61673;SDS011;47573;43.832;5.974;2022-11-25T16:36:50;32.08;;;21.55;;
61673;SDS011;47573;43.832;5.974;2022-11-25T16:41:56;33.05;;;22.25;;
61673;SDS011;47573;43.832;5.974;2022-11-25T16:46:58;32.22;;;21.48;;
61673;SDS011;47573;43.832;5.974;2022-11-25T16:51:59;33.55;;;22.70;;
61673;SDS011;47573;43.832;5.974;2022-11-25T16:57:01;36.92;;;23.90;;
61673;SDS011;47573;43.832;5.974;2022-11-25T17:02:07;40.13;;;24.45;;
61673;SDS011;47573;43.832;5.974;2022-11-25T17:07:15;42.25;;;25.73;;
61673;SDS011;47573;43.832;5.974;2022-11-25T17:12:19;43.33;;;27.25;;
61673;SDS011;47573;43.832;5.974;2022-11-25T17:17:25;44.58;;;27.45;;
61673;SDS011;47573;43.832;5.974;2022-11-25T17:22:27;48.90;;;28.15;;
61673;SDS011;47573;43.832;5.974;2022-11-25T17:27:30;55.75;;;32.22;;
61673;SDS011;47573;43.832;5.974;2022-11-25T17:32:31;62.40;;;34.97;;
61673;SDS011;47573;43.832;5.974;2022-11-25T17:37:33;63.20;;;35.55;;
61673;SDS011;47573;43.832;5.974;2022-11-25T17:42:35;116.60;;;50.42;;
61673;SDS011;47573;43.832;5.974;2022-11-25T17:47:35;76.60;;;40.47;;
61673;SDS011;47573;43.832;5.974;2022-11-25T17:52:36;97.85;;;51.30;;
61673;SDS011;47573;43.832;5.974;2022-11-25T17:57:38;126.65;;;68.22;;
61673;SDS011;47573;43.832;5.974;2022-11-25T18:02:39;160.43;;;84.43;;
61673;SDS011;47573;43.832;5.974;2022-11-25T18:07:40;173.77;;;93.55;;
61673;SDS011;47573;43.832;5.974;2022-11-25T18:12:42;178.43;;;92.47;;
61673;SDS011;47573;43.832;5.974;2022-11-25T18:17:45;172.82;;;92.53;;
61673;SDS011;47573;43.832;5.974;2022-11-25T18:22:46;176.02;;;94.82;;
61673;SDS011;47573;43.832;5.974;2022-11-25T18:27:49;178.45;;;96.10;;
61673;SDS011;47573;43.832;5.974;2022-11-25T18:32:51;200.73;;;107.65;;
61673;SDS011;47573;43.832;5.974;2022-11-25T18:37:51;213.73;;;114.20;;
61673;SDS011;47573;43.832;5.974;2022-11-25T18:42:54;212.95;;;114.53;;
61673;SDS011;47573;43.832;5.974;2022-11-25T18:47:56;217.77;;;117.18;;
61673;SDS011;47573;43.832;5.974;2022-11-25T18:52:57;247.45;;;134.60;;
61673;SDS011;47573;43.832;5.974;2022-11-25T18:57:58;290.83;;;156.65;;
61673;SDS011;47573;43.832;5.974;2022-11-25T19:03:00;291.02;;;159.63;;
61673;SDS011;47573;43.832;5.974;2022-11-25T19:08:01;302.38;;;167.55;;
61673;SDS011;47573;43.832;5.974;2022-11-25T19:13:04;399.45;;;233.45;;
61673;SDS011;47573;43.832;5.974;2022-11-25T19:18:08;381.20;;;226.63;;
61673;SDS011;47573;43.832;5.974;2022-11-25T19:28:17;369.00;;;215.57;;
61673;SDS011;47573;43.832;5.974;2022-11-25T19:33:19;410.83;;;242.48;;
61673;SDS011;47573;43.832;5.974;2022-11-25T19:38:23;435.10;;;261.98;;
61673;SDS011;47573;43.832;5.974;2022-11-25T19:43:25;438.75;;;265.60;;
61673;SDS011;47573;43.832;5.974;2022-11-25T19:48:26;441.05;;;263.58;;
61673;SDS011;47573;43.832;5.974;2022-11-25T19:53:33;438.88;;;268.83;;
61673;SDS011;47573;43.832;5.974;2022-11-25T19:58:35;452.92;;;273.20;;
61673;SDS011;47573;43.832;5.974;2022-11-25T20:03:36;467.98;;;288.88;;
61673;SDS011;47573;43.832;5.974;2022-11-25T20:08:36;468.10;;;295.25;;
61673;SDS011;47573;43.832;5.974;2022-11-25T20:13:38;1394.80;;;670.38;;
61673;SDS011;47573;43.832;5.974;2022-11-25T20:18:39;846.30;;;541.88;;
61673;SDS011;47573;43.832;5.974;2022-11-25T20:23:39;780.83;;;544.95;;
61673;SDS011;47573;43.832;5.974;2022-11-25T20:28:42;778.78;;;543.28;;
61673;SDS011;47573;43.832;5.974;2022-11-25T20:33:43;792.50;;;555.97;;
61673;SDS011;47573;43.832;5.974;2022-11-25T20:38:45;800.45;;;570.72;;
61673;SDS011;47573;43.832;5.974;2022-11-25T20:43:48;811.25;;;580.30;;
61673;SDS011;47573;43.832;5.974;2022-11-25T20:48:50;798.10;;;571.05;;
61673;SDS011;47573;43.832;5.974;2022-11-25T20:53:54;793.38;;;564.03;;
61673;SDS011;47573;43.832;5.974;2022-11-25T20:58:57;799.22;;;575.13;;
61673;SDS011;47573;43.832;5.974;2022-11-25T21:03:58;812.03;;;586.42;;
61673;SDS011;47573;43.832;5.974;2022-11-25T21:08:58;799.58;;;591.88;;
61673;SDS011;47573;43.832;5.974;2022-11-25T21:14:01;805.10;;;594.45;;
61673;SDS011;47573;43.832;5.974;2022-11-25T21:19:02;809.58;;;596.10;;
61673;SDS011;47573;43.832;5.974;2022-11-25T21:24:04;804.42;;;592.55;;
61673;SDS011;47573;43.832;5.974;2022-11-25T21:29:12;814.60;;;601.50;;
61673;SDS011;47573;43.832;5.974;2022-11-25T21:34:14;802.33;;;602.47;;
61673;SDS011;47573;43.832;5.974;2022-11-25T21:39:18;815.95;;;602.88;;
61673;SDS011;47573;43.832;5.974;2022-11-25T21:44:33;804.83;;;606.65;;
61673;SDS011;47573;43.832;5.974;2022-11-25T21:49:37;826.55;;;617.05;;
61673;SDS011;47573;43.832;5.974;2022-11-25T21:54:37;820.55;;;610.50;;
61673;SDS011;47573;43.832;5.974;2022-11-25T21:59:39;804.88;;;601.45;;
61673;SDS011;47573;43.832;5.974;2022-11-25T22:04:40;810.22;;;608.53;;
61673;SDS011;47573;43.832;5.974;2022-11-25T22:09:40;818.00;;;615.17;;
61673;SDS011;47573;43.832;5.974;2022-11-25T22:14:42;819.50;;;622.15;;
61673;SDS011;47573;43.832;5.974;2022-11-25T22:19:43;801.95;;;612.88;;
61673;SDS011;47573;43.832;5.974;2022-11-25T22:24:44;794.42;;;604.00;;
61673;SDS011;47573;43.832;5.974;2022-11-25T22:29:46;753.55;;;571.60;;
61673;SDS011;47573;43.832;5.974;2022-11-25T22:34:47;762.45;;;578.38;;
61673;SDS011;47573;43.832;5.974;2022-11-25T22:39:48;741.92;;;567.00;;
61673;SDS011;47573;43.832;5.974;2022-11-25T22:44:50;746.42;;;567.45;;
61673;SDS011;47573;43.832;5.974;2022-11-25T22:49:51;761.00;;;581.78;;
61673;SDS011;47573;43.832;5.974;2022-11-25T22:54:52;750.85;;;580.10;;
61673;SDS011;47573;43.832;5.974;2022-11-25T22:59:55;766.17;;;583.00;;
61673;SDS011;47573;43.832;5.974;2022-11-25T23:04:55;742.80;;;573.03;;
61673;SDS011;47573;43.832;5.974;2022-11-25T23:09:56;732.60;;;559.55;;
61673;SDS011;47573;43.832;5.974;2022-11-25T23:14:57;729.63;;;563.03;;
61673;SDS011;47573;43.832;5.974;2022-11-25T23:19:58;743.22;;;574.85;;
61673;SDS011;47573;43.832;5.974;2022-11-25T23:24:58;735.08;;;568.38;;
61673;SDS011;47573;43.832;5.974;2022-11-25T23:30:00;716.47;;;550.88;;
61673;SDS011;47573;43.832;5.974;2022-11-25T23:35:01;709.85;;;543.55;;
61673;SDS011;47573;43.832;5.974;2022-11-25T23:40:01;737.63;;;568.65;;
61673;SDS011;47573;43.832;5.974;2022-11-25T23:45:06;734.65;;;570.70;;
61673;SDS011;47573;43.832;5.974;2022-11-25T23:50:12;718.35;;;557.97;;
61673;SDS011;47573;43.832;5.974;2022-11-25T23:55:26;728.05;;;563.53;;
